createdAt,value
2023-04-10T00:14:19.620Z,6.2
2023-04-10T00:24:21.710Z,6.2
2023-04-10T00:34:24.186Z,6.3
2023-04-10T00:44:26.173Z,6.2
2023-04-10T00:54:27.870Z,6.2
2023-04-10T01:04:30.316Z,6.2
2023-04-10T01:14:32.450Z,6.2
2023-04-10T01:24:34.627Z,6.2
2023-04-10T01:34:36.875Z,6.2
2023-04-10T01:44:39.279Z,6.3
2023-04-10T01:54:41.731Z,6.6
2023-04-10T02:04:43.468Z,6.5
2023-04-10T02:14:45.379Z,6.4
2023-04-10T02:24:47.928Z,6.1
2023-04-10T02:34:50.405Z,5.8
2023-04-10T02:44:52.672Z,5.5
2023-04-10T02:54:54.742Z,5.1
2023-04-10T03:04:56.869Z,4.7
2023-04-10T03:14:59.224Z,4.6
2023-04-10T03:45:05.074Z,4
2023-04-10T03:55:07.498Z,3.9
2023-04-10T04:05:09.797Z,3.8
2023-04-10T04:15:11.807Z,3.8
2023-04-10T04:25:14.310Z,3.9
2023-04-10T04:45:17.895Z,4.1
2023-04-10T04:55:20.382Z,3.9
2023-04-10T05:05:22.199Z,3.7
2023-04-10T05:15:24.422Z,3.6
2023-04-10T05:25:26.672Z,3.8
2023-04-10T05:35:29.043Z,4.1
2023-04-10T05:45:31.012Z,4.7
2023-04-10T05:55:33.305Z,5.3
2023-04-10T06:05:35.918Z,6.1
2023-04-10T06:15:37.856Z,6.4
2023-04-10T06:25:39.789Z,7.1
2023-04-10T06:35:41.757Z,7.7
2023-04-10T06:45:43.402Z,8.3
2023-04-10T06:55:45.208Z,8.9
2023-04-10T07:05:47.451Z,9.5
2023-04-10T07:15:49.632Z,10.4
2023-04-10T07:35:54.041Z,11.5
2023-04-10T07:45:56.497Z,11.8
2023-04-10T07:55:58.850Z,11.9
2023-04-10T08:06:01.436Z,12.2
2023-04-10T08:16:03.994Z,13.1
2023-04-10T08:26:06.023Z,12.9
2023-04-10T08:46:11.197Z,13.7
2023-04-10T08:56:13.555Z,14.2
2023-04-10T09:06:15.965Z,14.1
2023-04-10T09:16:18.114Z,14.3
2023-04-10T09:26:20.213Z,14.8
2023-04-10T09:36:22.838Z,15.5
2023-04-10T09:46:25.342Z,14.8
2023-04-10T09:56:27.858Z,15.1
2023-04-10T10:06:29.762Z,15.1
2023-04-10T10:16:32.099Z,15.2
2023-04-10T10:26:33.811Z,15.4
2023-04-10T10:36:35.684Z,15.7
2023-04-10T10:46:37.887Z,15.6
2023-04-10T10:56:40.467Z,15.9
2023-04-10T11:06:43.586Z,15.8
2023-04-10T11:16:45.205Z,15.9
2023-04-10T11:26:47.185Z,16.4
2023-04-10T11:36:49.451Z,16.8
2023-04-10T11:46:51.745Z,16.4
2023-04-10T11:56:53.438Z,16.7
2023-04-10T12:06:55.806Z,16.4
2023-04-10T12:27:01.552Z,17.3
2023-04-10T12:37:03.029Z,17.4
2023-04-10T12:47:05.084Z,16.9
2023-04-10T12:57:06.872Z,17.6
2023-04-10T13:17:11.539Z,17.9
2023-04-10T13:27:13.941Z,17.6
2023-04-10T13:37:15.667Z,17.2
2023-04-10T13:47:18.019Z,17.2
2023-04-10T13:57:20.120Z,17.4
2023-04-10T14:07:22.598Z,17.2
2023-04-10T14:17:25.195Z,17.2
2023-04-10T14:27:27.599Z,16.8
2023-04-10T14:37:30.195Z,16.8
2023-04-10T14:57:34.634Z,16.8
2023-04-10T15:07:37.022Z,16.6
2023-04-10T15:17:39.348Z,16.5
2023-04-10T15:27:41.684Z,16.3
2023-04-10T16:07:49.363Z,16.2
2023-04-10T16:17:51.898Z,16.2
2023-04-10T16:48:05.771Z,16.3
2023-04-10T17:08:10.266Z,16.2
2023-04-10T17:38:16.884Z,14.5
2023-04-10T17:48:18.947Z,13.9
2023-04-10T18:28:28.006Z,12.2
2023-04-10T18:38:30.124Z,12
2023-04-10T18:58:34.703Z,11.7
2023-04-10T19:18:39.689Z,11.2
2023-04-10T19:38:43.904Z,11.1
2023-04-10T20:08:50.264Z,10.2
2023-04-10T20:18:52.946Z,10
2023-04-10T20:28:55.201Z,9.8
2023-04-10T20:38:56.867Z,9.7
2023-04-10T20:48:58.899Z,9.6
2023-04-10T20:59:00.490Z,9.5
2023-04-10T21:09:02.474Z,9.5
2023-04-10T21:29:07.105Z,8.9
2023-04-10T21:49:10.509Z,8.7
2023-04-10T21:59:12.757Z,8.9
2023-04-10T22:09:15.205Z,8.9
2023-04-10T22:19:17.334Z,8.9
2023-04-10T22:29:19.334Z,8.9
2023-04-10T22:39:21.826Z,8.9
2023-04-10T22:49:23.882Z,8.9
2023-04-10T22:59:26.226Z,8.8
2023-04-10T23:09:28.803Z,8.6
2023-04-10T23:19:30.746Z,8.5
2023-04-10T23:29:32.498Z,8.7
2023-04-10T23:39:34.231Z,8.7
2023-04-10T23:49:36.528Z,8.8
2023-04-10T23:59:38.676Z,8.9
